sensor_id;sensor_type;location;lat;lon;timestamp;temperature;humidity
5154;DHT22;2595;53.584;10.084;2022-09-21T00:00:36;10.40;99.90
5154;DHT22;2595;53.584;10.084;2022-09-21T00:03:03;10.40;99.90
5154;DHT22;2595;53.584;10.084;2022-09-21T00:05:29;10.40;99.90
5154;DHT22;2595;53.584;10.084;2022-09-21T00:07:55;10.40;99.90
5154;DHT22;2595;53.584;10.084;2022-09-21T00:10:23;10.40;99.90
5154;DHT22;2595;53.584;10.084;2022-09-21T00:12:49;10.30;99.90
5154;DHT22;2595;53.584;10.084;2022-09-21T00:15:15;10.30;99.90
5154;DHT22;2595;53.584;10.084;2022-09-21T00:17:45;10.30;99.90
5154;DHT22;2595;53.584;10.084;2022-09-21T00:20:14;10.30;99.90
5154;DHT22;2595;53.584;10.084;2022-09-21T00:22:40;10.30;99.90
5154;DHT22;2595;53.584;10.084;2022-09-21T00:25:07;10.30;99.90
5154;DHT22;2595;53.584;10.084;2022-09-21T00:27:33;10.30;99.90
5154;DHT22;2595;53.584;10.084;2022-09-21T00:29:59;10.30;99.90
5154;DHT22;2595;53.584;10.084;2022-09-21T00:32:29;10.30;99.90
5154;DHT22;2595;53.584;10.084;2022-09-21T00:34:56;10.30;99.90
5154;DHT22;2595;53.584;10.084;2022-09-21T00:37:22;10.20;99.90
5154;DHT22;2595;53.584;10.084;2022-09-21T00:39:49;10.20;99.90
5154;DHT22;2595;53.584;10.084;2022-09-21T00:42:20;10.20;99.90
5154;DHT22;2595;53.584;10.084;2022-09-21T00:44:46;10.20;99.90
5154;DHT22;2595;53.584;10.084;2022-09-21T00:47:14;10.20;99.90
5154;DHT22;2595;53.584;10.084;2022-09-21T00:49:42;10.20;99.90
5154;DHT22;2595;53.584;10.084;2022-09-21T00:52:09;10.20;99.90
5154;DHT22;2595;53.584;10.084;2022-09-21T00:55:24;10.20;99.90
5154;DHT22;2595;53.584;10.084;2022-09-21T00:57:43;10.10;99.90
5154;DHT22;2595;53.584;10.084;2022-09-21T01:00:11;10.00;99.90
5154;DHT22;2595;53.584;10.084;2022-09-21T01:02:37;10.10;99.90
5154;DHT22;2595;53.584;10.084;2022-09-21T01:05:06;10.00;99.90
5154;DHT22;2595;53.584;10.084;2022-09-21T01:07:35;10.10;99.90
5154;DHT22;2595;53.584;10.084;2022-09-21T01:10:11;10.20;99.90
5154;DHT22;2595;53.584;10.084;2022-09-21T01:15:57;10.30;99.90
5154;DHT22;2595;53.584;10.084;2022-09-21T01:21:12;10.10;99.90
5154;DHT22;2595;53.584;10.084;2022-09-21T01:30:14;10.00;99.90
5154;DHT22;2595;53.584;10.084;2022-09-21T01:32:47;10.00;99.90
5154;DHT22;2595;53.584;10.084;2022-09-21T01:35:19;10.00;99.90
5154;DHT22;2595;53.584;10.084;2022-09-21T01:37:58;9.90;99.90
5154;DHT22;2595;53.584;10.084;2022-09-21T01:40:35;9.90;99.90
5154;DHT22;2595;53.584;10.084;2022-09-21T01:43:04;9.80;99.90
5154;DHT22;2595;53.584;10.084;2022-09-21T01:45:34;9.90;99.90
5154;DHT22;2595;53.584;10.084;2022-09-21T01:48:00;9.90;99.90
5154;DHT22;2595;53.584;10.084;2022-09-21T01:50:30;9.90;99.90
5154;DHT22;2595;53.584;10.084;2022-09-21T01:53:20;9.90;99.90
5154;DHT22;2595;53.584;10.084;2022-09-21T01:55:54;9.90;99.90
5154;DHT22;2595;53.584;10.084;2022-09-21T01:58:38;9.90;99.90
5154;DHT22;2595;53.584;10.084;2022-09-21T02:01:08;9.90;99.90
5154;DHT22;2595;53.584;10.084;2022-09-21T02:03:48;9.90;99.90
5154;DHT22;2595;53.584;10.084;2022-09-21T02:06:17;9.80;99.90
5154;DHT22;2595;53.584;10.084;2022-09-21T02:08:44;9.80;99.90
5154;DHT22;2595;53.584;10.084;2022-09-21T02:11:10;9.80;99.90
5154;DHT22;2595;53.584;10.084;2022-09-21T02:13:40;9.80;99.90
5154;DHT22;2595;53.584;10.084;2022-09-21T02:24:02;9.60;99.90
5154;DHT22;2595;53.584;10.084;2022-09-21T02:26:48;9.70;99.90
5154;DHT22;2595;53.584;10.084;2022-09-21T02:31:56;9.70;99.90
5154;DHT22;2595;53.584;10.084;2022-09-21T02:34:33;9.60;99.90
5154;DHT22;2595;53.584;10.084;2022-09-21T02:37:10;9.60;99.90
5154;DHT22;2595;53.584;10.084;2022-09-21T02:39:54;9.60;99.90
5154;DHT22;2595;53.584;10.084;2022-09-21T02:42:27;9.60;99.90
5154;DHT22;2595;53.584;10.084;2022-09-21T02:45:03;9.50;99.90
5154;DHT22;2595;53.584;10.084;2022-09-21T02:47:53;9.50;99.90
5154;DHT22;2595;53.584;10.084;2022-09-21T02:50:25;9.50;99.90
5154;DHT22;2595;53.584;10.084;2022-09-21T02:52:54;9.50;99.90
5154;DHT22;2595;53.584;10.084;2022-09-21T02:55:21;9.50;99.90
5154;DHT22;2595;53.584;10.084;2022-09-21T02:57:47;9.50;99.90
5154;DHT22;2595;53.584;10.084;2022-09-21T03:00:15;9.50;99.90
5154;DHT22;2595;53.584;10.084;2022-09-21T03:02:43;9.50;99.90
5154;DHT22;2595;53.584;10.084;2022-09-21T03:05:10;9.40;99.90
5154;DHT22;2595;53.584;10.084;2022-09-21T03:07:37;9.40;99.90
5154;DHT22;2595;53.584;10.084;2022-09-21T03:10:03;9.40;99.90
5154;DHT22;2595;53.584;10.084;2022-09-21T03:12:30;9.40;99.90
5154;DHT22;2595;53.584;10.084;2022-09-21T03:14:57;9.40;99.90
5154;DHT22;2595;53.584;10.084;2022-09-21T03:17:23;9.40;99.90
5154;DHT22;2595;53.584;10.084;2022-09-21T03:19:49;9.40;99.90
5154;DHT22;2595;53.584;10.084;2022-09-21T03:22:14;9.40;99.90
5154;DHT22;2595;53.584;10.084;2022-09-21T03:24:42;9.30;99.90
5154;DHT22;2595;53.584;10.084;2022-09-21T03:27:11;9.30;99.90
5154;DHT22;2595;53.584;10.084;2022-09-21T03:29:37;9.30;99.90
5154;DHT22;2595;53.584;10.084;2022-09-21T03:32:03;9.30;99.90
5154;DHT22;2595;53.584;10.084;2022-09-21T03:34:28;9.30;99.90
5154;DHT22;2595;53.584;10.084;2022-09-21T03:36:57;9.20;99.90
5154;DHT22;2595;53.584;10.084;2022-09-21T03:39:22;9.20;99.90
5154;DHT22;2595;53.584;10.084;2022-09-21T03:41:48;9.30;99.90
5154;DHT22;2595;53.584;10.084;2022-09-21T03:44:14;9.30;99.90
5154;DHT22;2595;53.584;10.084;2022-09-21T03:46:42;9.20;99.90
5154;DHT22;2595;53.584;10.084;2022-09-21T03:49:07;9.30;99.90
5154;DHT22;2595;53.584;10.084;2022-09-21T03:51:33;9.30;99.90
5154;DHT22;2595;53.584;10.084;2022-09-21T03:53:58;9.20;99.90
5154;DHT22;2595;53.584;10.084;2022-09-21T03:56:24;9.30;99.90
5154;DHT22;2595;53.584;10.084;2022-09-21T03:58:49;9.30;99.90
5154;DHT22;2595;53.584;10.084;2022-09-21T04:01:15;9.30;99.90
5154;DHT22;2595;53.584;10.084;2022-09-21T04:03:41;9.30;99.90
5154;DHT22;2595;53.584;10.084;2022-09-21T04:06:11;9.20;99.90
5154;DHT22;2595;53.584;10.084;2022-09-21T04:08:37;9.30;99.90
5154;DHT22;2595;53.584;10.084;2022-09-21T04:11:14;9.30;99.90
5154;DHT22;2595;53.584;10.084;2022-09-21T04:13:41;9.30;99.90
5154;DHT22;2595;53.584;10.084;2022-09-21T04:16:07;9.30;99.90
5154;DHT22;2595;53.584;10.084;2022-09-21T04:18:34;9.30;99.90
5154;DHT22;2595;53.584;10.084;2022-09-21T04:20:59;9.30;99.90
5154;DHT22;2595;53.584;10.084;2022-09-21T04:23:25;9.20;99.90
5154;DHT22;2595;53.584;10.084;2022-09-21T04:25:52;9.20;99.90
5154;DHT22;2595;53.584;10.084;2022-09-21T04:28:18;9.20;99.90
5154;DHT22;2595;53.584;10.084;2022-09-21T04:30:44;9.20;99.90
5154;DHT22;2595;53.584;10.084;2022-09-21T04:33:09;9.20;99.90
5154;DHT22;2595;53.584;10.084;2022-09-21T04:35:35;9.20;99.90
5154;DHT22;2595;53.584;10.084;2022-09-21T04:38:00;9.20;99.90
5154;DHT22;2595;53.584;10.084;2022-09-21T04:40:26;9.20;99.90
5154;DHT22;2595;53.584;10.084;2022-09-21T04:42:52;9.20;99.90
5154;DHT22;2595;53.584;10.084;2022-09-21T04:45:22;9.30;99.90
5154;DHT22;2595;53.584;10.084;2022-09-21T04:47:48;9.20;99.90
5154;DHT22;2595;53.584;10.084;2022-09-21T04:50:14;9.10;99.90
5154;DHT22;2595;53.584;10.084;2022-09-21T04:52:40;9.00;99.90
5154;DHT22;2595;53.584;10.084;2022-09-21T04:55:06;9.10;99.90
5154;DHT22;2595;53.584;10.084;2022-09-21T04:57:32;9.10;99.90
5154;DHT22;2595;53.584;10.084;2022-09-21T04:59:57;9.10;99.90
5154;DHT22;2595;53.584;10.084;2022-09-21T05:02:23;9.10;99.90
5154;DHT22;2595;53.584;10.084;2022-09-21T05:04:49;9.10;99.90
5154;DHT22;2595;53.584;10.084;2022-09-21T05:07:15;9.10;99.90
5154;DHT22;2595;53.584;10.084;2022-09-21T05:09:40;9.10;99.90
5154;DHT22;2595;53.584;10.084;2022-09-21T05:12:41;9.10;99.90
5154;DHT22;2595;53.584;10.084;2022-09-21T05:15:08;9.00;99.90
5154;DHT22;2595;53.584;10.084;2022-09-21T05:17:35;9.00;99.90
5154;DHT22;2595;53.584;10.084;2022-09-21T05:20:01;9.00;99.90
5154;DHT22;2595;53.584;10.084;2022-09-21T05:22:27;8.90;99.90
5154;DHT22;2595;53.584;10.084;2022-09-21T05:24:53;8.90;99.90
5154;DHT22;2595;53.584;10.084;2022-09-21T05:27:18;8.90;99.90
5154;DHT22;2595;53.584;10.084;2022-09-21T05:29:44;8.90;99.90
5154;DHT22;2595;53.584;10.084;2022-09-21T05:35:14;9.00;99.90
5154;DHT22;2595;53.584;10.084;2022-09-21T05:40:15;9.00;99.90
5154;DHT22;2595;53.584;10.084;2022-09-21T05:42:42;9.00;99.90
5154;DHT22;2595;53.584;10.084;2022-09-21T05:45:12;9.00;99.90
5154;DHT22;2595;53.584;10.084;2022-09-21T05:50:55;9.00;99.90
5154;DHT22;2595;53.584;10.084;2022-09-21T05:53:49;9.10;99.90
5154;DHT22;2595;53.584;10.084;2022-09-21T05:56:35;9.10;99.90
5154;DHT22;2595;53.584;10.084;2022-09-21T06:04:40;9.20;99.90
5154;DHT22;2595;53.584;10.084;2022-09-21T06:07:06;9.10;99.90
5154;DHT22;2595;53.584;10.084;2022-09-21T06:09:31;9.20;99.90
5154;DHT22;2595;53.584;10.084;2022-09-21T06:11:57;9.30;99.90
5154;DHT22;2595;53.584;10.084;2022-09-21T06:14:23;9.30;99.90
5154;DHT22;2595;53.584;10.084;2022-09-21T06:16:50;9.30;99.90
5154;DHT22;2595;53.584;10.084;2022-09-21T06:19:16;9.30;99.90
5154;DHT22;2595;53.584;10.084;2022-09-21T06:21:42;9.40;99.90
5154;DHT22;2595;53.584;10.084;2022-09-21T06:24:07;9.40;99.90
5154;DHT22;2595;53.584;10.084;2022-09-21T06:26:33;9.40;99.90
5154;DHT22;2595;53.584;10.084;2022-09-21T06:28:59;9.40;99.90
5154;DHT22;2595;53.584;10.084;2022-09-21T06:31:26;9.50;99.90
5154;DHT22;2595;53.584;10.084;2022-09-21T06:33:52;9.60;99.90
5154;DHT22;2595;53.584;10.084;2022-09-21T06:36:17;9.60;99.90
5154;DHT22;2595;53.584;10.084;2022-09-21T06:38:43;9.70;99.90
5154;DHT22;2595;53.584;10.084;2022-09-21T06:41:09;9.70;99.90
5154;DHT22;2595;53.584;10.084;2022-09-21T06:43:35;9.80;99.90
5154;DHT22;2595;53.584;10.084;2022-09-21T06:46:01;9.90;99.90
5154;DHT22;2595;53.584;10.084;2022-09-21T06:48:28;10.00;99.90
5154;DHT22;2595;53.584;10.084;2022-09-21T06:51:02;10.10;99.90
5154;DHT22;2595;53.584;10.084;2022-09-21T06:53:29;10.20;99.90
5154;DHT22;2595;53.584;10.084;2022-09-21T06:56:06;10.30;99.90
5154;DHT22;2595;53.584;10.084;2022-09-21T06:58:33;10.30;99.90
5154;DHT22;2595;53.584;10.084;2022-09-21T07:01:10;10.40;99.90
5154;DHT22;2595;53.584;10.084;2022-09-21T07:03:37;10.50;99.90
5154;DHT22;2595;53.584;10.084;2022-09-21T07:06:04;10.50;99.90
5154;DHT22;2595;53.584;10.084;2022-09-21T07:08:30;10.60;99.90
5154;DHT22;2595;53.584;10.084;2022-09-21T07:10:59;10.60;99.90
5154;DHT22;2595;53.584;10.084;2022-09-21T07:13:26;10.70;99.90
5154;DHT22;2595;53.584;10.084;2022-09-21T07:15:52;10.80;99.90
5154;DHT22;2595;53.584;10.084;2022-09-21T07:18:17;10.80;99.90
5154;DHT22;2595;53.584;10.084;2022-09-21T07:20:43;10.90;99.90
5154;DHT22;2595;53.584;10.084;2022-09-21T07:23:14;11.00;99.90
5154;DHT22;2595;53.584;10.084;2022-09-21T07:25:41;11.00;99.90
5154;DHT22;2595;53.584;10.084;2022-09-21T07:28:07;11.10;99.90
5154;DHT22;2595;53.584;10.084;2022-09-21T07:30:32;11.20;99.90
5154;DHT22;2595;53.584;10.084;2022-09-21T07:32:58;11.20;99.90
5154;DHT22;2595;53.584;10.084;2022-09-21T07:35:23;11.30;99.90
5154;DHT22;2595;53.584;10.084;2022-09-21T07:37:49;11.30;99.90
5154;DHT22;2595;53.584;10.084;2022-09-21T07:40:14;11.40;99.90
5154;DHT22;2595;53.584;10.084;2022-09-21T07:42:40;11.40;99.90
5154;DHT22;2595;53.584;10.084;2022-09-21T07:45:06;11.50;99.90
5154;DHT22;2595;53.584;10.084;2022-09-21T07:47:32;11.50;99.90
5154;DHT22;2595;53.584;10.084;2022-09-21T07:49:57;11.60;99.90
5154;DHT22;2595;53.584;10.084;2022-09-21T07:52:23;11.60;99.90
5154;DHT22;2595;53.584;10.084;2022-09-21T07:54:48;11.60;99.90
5154;DHT22;2595;53.584;10.084;2022-09-21T07:57:14;11.70;99.90
5154;DHT22;2595;53.584;10.084;2022-09-21T07:59:58;11.70;99.90
5154;DHT22;2595;53.584;10.084;2022-09-21T08:02:24;11.80;99.90
5154;DHT22;2595;53.584;10.084;2022-09-21T08:04:50;11.80;99.90
5154;DHT22;2595;53.584;10.084;2022-09-21T08:07:15;11.90;99.90
5154;DHT22;2595;53.584;10.084;2022-09-21T08:09:41;11.90;99.90
5154;DHT22;2595;53.584;10.084;2022-09-21T08:12:07;12.00;99.90
5154;DHT22;2595;53.584;10.084;2022-09-21T08:14:33;12.00;99.90
5154;DHT22;2595;53.584;10.084;2022-09-21T08:17:00;12.00;99.90
5154;DHT22;2595;53.584;10.084;2022-09-21T08:19:26;12.10;99.90
5154;DHT22;2595;53.584;10.084;2022-09-21T08:21:52;12.10;99.90
5154;DHT22;2595;53.584;10.084;2022-09-21T08:24:19;12.20;99.90
5154;DHT22;2595;53.584;10.084;2022-09-21T08:26:45;12.20;99.90
5154;DHT22;2595;53.584;10.084;2022-09-21T08:29:10;12.20;99.90
5154;DHT22;2595;53.584;10.084;2022-09-21T08:31:39;12.30;99.90
5154;DHT22;2595;53.584;10.084;2022-09-21T08:34:04;12.30;99.90
5154;DHT22;2595;53.584;10.084;2022-09-21T08:36:30;12.40;99.90
5154;DHT22;2595;53.584;10.084;2022-09-21T08:38:56;12.40;99.90
5154;DHT22;2595;53.584;10.084;2022-09-21T08:44:33;12.50;99.90
5154;DHT22;2595;53.584;10.084;2022-09-21T08:47:04;12.50;99.90
5154;DHT22;2595;53.584;10.084;2022-09-21T08:49:35;12.50;99.90
5154;DHT22;2595;53.584;10.084;2022-09-21T08:52:10;12.60;99.90
5154;DHT22;2595;53.584;10.084;2022-09-21T08:55:00;12.70;99.90
5154;DHT22;2595;53.584;10.084;2022-09-21T08:57:32;12.70;99.90
5154;DHT22;2595;53.584;10.084;2022-09-21T08:59:59;12.70;99.90
5154;DHT22;2595;53.584;10.084;2022-09-21T09:02:39;12.80;99.90
5154;DHT22;2595;53.584;10.084;2022-09-21T09:13:51;12.90;99.90
5154;DHT22;2595;53.584;10.084;2022-09-21T09:19:18;13.00;99.90
5154;DHT22;2595;53.584;10.084;2022-09-21T09:21:45;13.00;99.90
5154;DHT22;2595;53.584;10.084;2022-09-21T09:24:28;13.10;99.90
5154;DHT22;2595;53.584;10.084;2022-09-21T09:27:08;13.10;99.90
5154;DHT22;2595;53.584;10.084;2022-09-21T09:32:17;13.30;99.90
5154;DHT22;2595;53.584;10.084;2022-09-21T09:35:04;13.30;99.90
5154;DHT22;2595;53.584;10.084;2022-09-21T09:37:34;13.40;99.90
5154;DHT22;2595;53.584;10.084;2022-09-21T09:40:04;13.40;99.90
5154;DHT22;2595;53.584;10.084;2022-09-21T09:42:49;13.50;99.90
5154;DHT22;2595;53.584;10.084;2022-09-21T09:50:51;13.60;99.90
5154;DHT22;2595;53.584;10.084;2022-09-21T09:53:20;13.70;99.90
5154;DHT22;2595;53.584;10.084;2022-09-21T09:55:55;13.70;99.90
5154;DHT22;2595;53.584;10.084;2022-09-21T10:01:01;13.80;99.90
5154;DHT22;2595;53.584;10.084;2022-09-21T10:03:27;13.90;99.90
5154;DHT22;2595;53.584;10.084;2022-09-21T10:05:54;13.90;99.90
5154;DHT22;2595;53.584;10.084;2022-09-21T10:08:39;14.00;99.90
5154;DHT22;2595;53.584;10.084;2022-09-21T10:11:10;14.10;99.90
5154;DHT22;2595;53.584;10.084;2022-09-21T10:13:38;14.10;99.90
5154;DHT22;2595;53.584;10.084;2022-09-21T10:16:05;14.20;99.90
5154;DHT22;2595;53.584;10.084;2022-09-21T10:18:54;14.30;99.90
5154;DHT22;2595;53.584;10.084;2022-09-21T10:21:38;14.40;99.90
5154;DHT22;2595;53.584;10.084;2022-09-21T10:24:17;14.60;99.90
5154;DHT22;2595;53.584;10.084;2022-09-21T10:26:47;14.90;99.90
5154;DHT22;2595;53.584;10.084;2022-09-21T10:34:24;16.00;99.90
5154;DHT22;2595;53.584;10.084;2022-09-21T10:36:52;16.00;99.90
5154;DHT22;2595;53.584;10.084;2022-09-21T10:39:22;16.00;99.90
5154;DHT22;2595;53.584;10.084;2022-09-21T10:42:02;15.90;99.90
5154;DHT22;2595;53.584;10.084;2022-09-21T10:44:36;15.80;99.90
5154;DHT22;2595;53.584;10.084;2022-09-21T10:47:29;15.70;99.90
5154;DHT22;2595;53.584;10.084;2022-09-21T10:49:59;15.60;99.90
5154;DHT22;2595;53.584;10.084;2022-09-21T10:52:39;15.50;99.90
5154;DHT22;2595;53.584;10.084;2022-09-21T10:55:13;15.50;99.90
5154;DHT22;2595;53.584;10.084;2022-09-21T10:57:40;15.40;99.90
5154;DHT22;2595;53.584;10.084;2022-09-21T11:00:28;15.40;99.90
5154;DHT22;2595;53.584;10.084;2022-09-21T11:03:00;15.40;99.90
5154;DHT22;2595;53.584;10.084;2022-09-21T11:05:37;15.30;99.90
5154;DHT22;2595;53.584;10.084;2022-09-21T11:08:17;15.20;99.90
5154;DHT22;2595;53.584;10.084;2022-09-21T11:11:03;15.10;99.90
5154;DHT22;2595;53.584;10.084;2022-09-21T11:13:48;15.00;99.90
5154;DHT22;2595;53.584;10.084;2022-09-21T11:16:37;15.00;99.90
5154;DHT22;2595;53.584;10.084;2022-09-21T11:21:54;15.30;99.90
5154;DHT22;2595;53.584;10.084;2022-09-21T11:24:49;15.40;99.90
5154;DHT22;2595;53.584;10.084;2022-09-21T11:30:01;15.70;99.90
5154;DHT22;2595;53.584;10.084;2022-09-21T11:33:03;15.90;99.90
5154;DHT22;2595;53.584;10.084;2022-09-21T11:38:49;16.10;99.90
5154;DHT22;2595;53.584;10.084;2022-09-21T11:44:35;16.20;99.90
5154;DHT22;2595;53.584;10.084;2022-09-21T11:47:09;16.40;99.90
5154;DHT22;2595;53.584;10.084;2022-09-21T12:08:59;17.30;99.90
5154;DHT22;2595;53.584;10.084;2022-09-21T12:22:07;17.40;99.90
5154;DHT22;2595;53.584;10.084;2022-09-21T12:24:50;17.30;99.90
5154;DHT22;2595;53.584;10.084;2022-09-21T12:27:28;17.30;99.90
5154;DHT22;2595;53.584;10.084;2022-09-21T12:36:09;17.00;99.90
5154;DHT22;2595;53.584;10.084;2022-09-21T12:38:29;16.90;99.90
5154;DHT22;2595;53.584;10.084;2022-09-21T12:41:16;16.80;99.90
5154;DHT22;2595;53.584;10.084;2022-09-21T12:44:08;16.70;99.90
5154;DHT22;2595;53.584;10.084;2022-09-21T12:46:44;16.70;99.90
5154;DHT22;2595;53.584;10.084;2022-09-21T12:49:16;16.60;99.90
5154;DHT22;2595;53.584;10.084;2022-09-21T12:51:49;16.60;99.90
5154;DHT22;2595;53.584;10.084;2022-09-21T12:57:02;16.40;99.90
5154;DHT22;2595;53.584;10.084;2022-09-21T13:00:04;16.30;99.90
5154;DHT22;2595;53.584;10.084;2022-09-21T13:07:56;16.20;99.90
5154;DHT22;2595;53.584;10.084;2022-09-21T13:13:02;16.20;99.90
5154;DHT22;2595;53.584;10.084;2022-09-21T13:15:40;16.30;99.90
5154;DHT22;2595;53.584;10.084;2022-09-21T13:20:46;16.50;99.90
5154;DHT22;2595;53.584;10.084;2022-09-21T13:23:19;16.60;99.90
5154;DHT22;2595;53.584;10.084;2022-09-21T13:26:05;16.70;99.90
5154;DHT22;2595;53.584;10.084;2022-09-21T13:31:37;17.00;99.90
5154;DHT22;2595;53.584;10.084;2022-09-21T13:44:58;17.60;99.90
5154;DHT22;2595;53.584;10.084;2022-09-21T13:47:30;17.70;99.90
5154;DHT22;2595;53.584;10.084;2022-09-21T13:49:56;17.80;99.90
5154;DHT22;2595;53.584;10.084;2022-09-21T13:52:29;17.80;99.90
5154;DHT22;2595;53.584;10.084;2022-09-21T13:55:02;17.90;99.90
5154;DHT22;2595;53.584;10.084;2022-09-21T13:57:42;17.90;99.40
5154;DHT22;2595;53.584;10.084;2022-09-21T14:02:39;18.10;99.60
5154;DHT22;2595;53.584;10.084;2022-09-21T14:07:31;18.20;99.20
5154;DHT22;2595;53.584;10.084;2022-09-21T14:10:02;18.20;98.90
5154;DHT22;2595;53.584;10.084;2022-09-21T14:12:33;18.20;97.00
5154;DHT22;2595;53.584;10.084;2022-09-21T14:17:44;18.30;97.70
5154;DHT22;2595;53.584;10.084;2022-09-21T14:20:28;18.30;98.50
5154;DHT22;2595;53.584;10.084;2022-09-21T14:25:54;18.40;98.00
5154;DHT22;2595;53.584;10.084;2022-09-21T14:28:42;18.40;98.20
5154;DHT22;2595;53.584;10.084;2022-09-21T14:31:28;18.40;98.20
5154;DHT22;2595;53.584;10.084;2022-09-21T14:33:56;18.40;98.40
5154;DHT22;2595;53.584;10.084;2022-09-21T14:36:32;18.40;97.70
5154;DHT22;2595;53.584;10.084;2022-09-21T14:39:03;18.40;97.70
5154;DHT22;2595;53.584;10.084;2022-09-21T14:41:41;18.40;98.10
5154;DHT22;2595;53.584;10.084;2022-09-21T14:44:17;18.40;98.00
5154;DHT22;2595;53.584;10.084;2022-09-21T15:00:41;18.30;96.60
5154;DHT22;2595;53.584;10.084;2022-09-21T15:06:10;18.20;96.90
5154;DHT22;2595;53.584;10.084;2022-09-21T15:12:18;18.00;97.10
5154;DHT22;2595;53.584;10.084;2022-09-21T15:17:54;17.90;97.70
5154;DHT22;2595;53.584;10.084;2022-09-21T15:20:24;17.80;97.90
5154;DHT22;2595;53.584;10.084;2022-09-21T15:22:54;17.70;97.90
5154;DHT22;2595;53.584;10.084;2022-09-21T15:25:21;17.70;98.30
5154;DHT22;2595;53.584;10.084;2022-09-21T15:27:48;17.60;97.50
5154;DHT22;2595;53.584;10.084;2022-09-21T15:30:24;17.50;97.90
5154;DHT22;2595;53.584;10.084;2022-09-21T15:32:59;17.50;98.10
5154;DHT22;2595;53.584;10.084;2022-09-21T15:35:27;17.40;98.10
5154;DHT22;2595;53.584;10.084;2022-09-21T15:37:54;17.30;98.20
5154;DHT22;2595;53.584;10.084;2022-09-21T15:40:34;17.30;98.40
5154;DHT22;2595;53.584;10.084;2022-09-21T15:48:24;17.20;99.00
5154;DHT22;2595;53.584;10.084;2022-09-21T15:50:55;17.10;99.00
5154;DHT22;2595;53.584;10.084;2022-09-21T15:53:32;17.10;99.40
5154;DHT22;2595;53.584;10.084;2022-09-21T15:55:59;17.00;98.00
5154;DHT22;2595;53.584;10.084;2022-09-21T15:58:34;17.00;98.60
5154;DHT22;2595;53.584;10.084;2022-09-21T16:01:08;16.90;98.00
5154;DHT22;2595;53.584;10.084;2022-09-21T16:03:34;16.90;98.60
5154;DHT22;2595;53.584;10.084;2022-09-21T16:08:47;16.80;98.10
5154;DHT22;2595;53.584;10.084;2022-09-21T16:11:17;16.80;98.60
5154;DHT22;2595;53.584;10.084;2022-09-21T16:13:47;16.80;99.00
5154;DHT22;2595;53.584;10.084;2022-09-21T16:19:43;16.70;99.60
5154;DHT22;2595;53.584;10.084;2022-09-21T16:22:15;16.70;99.90
5154;DHT22;2595;53.584;10.084;2022-09-21T16:24:59;16.70;99.90
5154;DHT22;2595;53.584;10.084;2022-09-21T16:27:27;16.60;99.90
5154;DHT22;2595;53.584;10.084;2022-09-21T16:29:55;16.60;99.90
5154;DHT22;2595;53.584;10.084;2022-09-21T16:32:31;16.60;99.90
5154;DHT22;2595;53.584;10.084;2022-09-21T16:35:23;16.60;99.90
5154;DHT22;2595;53.584;10.084;2022-09-21T16:37:52;16.60;99.90
5154;DHT22;2595;53.584;10.084;2022-09-21T16:40:24;16.60;99.90
5154;DHT22;2595;53.584;10.084;2022-09-21T16:42:50;16.50;99.90
5154;DHT22;2595;53.584;10.084;2022-09-21T16:45:23;16.50;99.90
5154;DHT22;2595;53.584;10.084;2022-09-21T16:47:49;16.50;99.90
5154;DHT22;2595;53.584;10.084;2022-09-21T16:50:16;16.50;99.90
5154;DHT22;2595;53.584;10.084;2022-09-21T16:52:43;16.40;99.90
5154;DHT22;2595;53.584;10.084;2022-09-21T16:55:17;16.40;99.90
5154;DHT22;2595;53.584;10.084;2022-09-21T16:57:43;16.40;99.90
5154;DHT22;2595;53.584;10.084;2022-09-21T17:00:15;16.30;99.90
5154;DHT22;2595;53.584;10.084;2022-09-21T17:02:46;16.30;99.90
5154;DHT22;2595;53.584;10.084;2022-09-21T17:05:13;16.30;99.90
5154;DHT22;2595;53.584;10.084;2022-09-21T17:07:51;16.20;99.90
5154;DHT22;2595;53.584;10.084;2022-09-21T17:10:19;16.20;99.90
5154;DHT22;2595;53.584;10.084;2022-09-21T17:12:44;16.20;99.90
5154;DHT22;2595;53.584;10.084;2022-09-21T17:15:13;16.10;99.90
5154;DHT22;2595;53.584;10.084;2022-09-21T17:17:39;16.10;99.90
5154;DHT22;2595;53.584;10.084;2022-09-21T17:20:16;16.00;99.90
5154;DHT22;2595;53.584;10.084;2022-09-21T17:22:42;16.00;99.90
5154;DHT22;2595;53.584;10.084;2022-09-21T17:25:08;15.90;99.90
5154;DHT22;2595;53.584;10.084;2022-09-21T17:27:34;15.80;99.90
5154;DHT22;2595;53.584;10.084;2022-09-21T17:29:59;15.80;99.90
5154;DHT22;2595;53.584;10.084;2022-09-21T17:32:27;15.80;99.90
5154;DHT22;2595;53.584;10.084;2022-09-21T17:37:41;15.70;99.90
5154;DHT22;2595;53.584;10.084;2022-09-21T17:40:08;15.60;99.90
5154;DHT22;2595;53.584;10.084;2022-09-21T17:42:38;15.60;99.90
5154;DHT22;2595;53.584;10.084;2022-09-21T17:45:13;15.50;99.90
5154;DHT22;2595;53.584;10.084;2022-09-21T17:47:40;15.50;99.90
5154;DHT22;2595;53.584;10.084;2022-09-21T17:52:39;15.40;99.90
5154;DHT22;2595;53.584;10.084;2022-09-21T17:55:24;15.30;99.90
5154;DHT22;2595;53.584;10.084;2022-09-21T18:00:42;15.20;99.90
5154;DHT22;2595;53.584;10.084;2022-09-21T18:03:20;15.20;99.90
5154;DHT22;2595;53.584;10.084;2022-09-21T18:05:47;15.10;99.90
5154;DHT22;2595;53.584;10.084;2022-09-21T18:08:15;15.10;99.90
5154;DHT22;2595;53.584;10.084;2022-09-21T18:10:45;15.10;99.90
5154;DHT22;2595;53.584;10.084;2022-09-21T18:13:53;15.10;99.90
5154;DHT22;2595;53.584;10.084;2022-09-21T18:16:48;15.00;99.90
5154;DHT22;2595;53.584;10.084;2022-09-21T18:19:30;15.00;99.90
5154;DHT22;2595;53.584;10.084;2022-09-21T18:22:14;14.90;99.90
5154;DHT22;2595;53.584;10.084;2022-09-21T18:24:42;14.90;99.90
5154;DHT22;2595;53.584;10.084;2022-09-21T18:27:10;14.80;99.90
5154;DHT22;2595;53.584;10.084;2022-09-21T18:29:36;14.70;99.90
5154;DHT22;2595;53.584;10.084;2022-09-21T18:35:25;14.70;99.90
5154;DHT22;2595;53.584;10.084;2022-09-21T18:38:08;14.70;99.90
5154;DHT22;2595;53.584;10.084;2022-09-21T18:46:49;14.60;99.90
5154;DHT22;2595;53.584;10.084;2022-09-21T18:54:40;14.50;99.90
5154;DHT22;2595;53.584;10.084;2022-09-21T18:57:11;14.40;99.90
5154;DHT22;2595;53.584;10.084;2022-09-21T18:59:37;14.40;99.90
5154;DHT22;2595;53.584;10.084;2022-09-21T19:02:13;14.40;99.90
5154;DHT22;2595;53.584;10.084;2022-09-21T19:04:41;14.30;99.90
5154;DHT22;2595;53.584;10.084;2022-09-21T19:07:23;14.30;99.90
5154;DHT22;2595;53.584;10.084;2022-09-21T19:09:55;14.30;99.90
5154;DHT22;2595;53.584;10.084;2022-09-21T19:15:38;14.30;99.90
5154;DHT22;2595;53.584;10.084;2022-09-21T19:21:04;14.20;99.90
5154;DHT22;2595;53.584;10.084;2022-09-21T19:23:45;14.10;99.90
5154;DHT22;2595;53.584;10.084;2022-09-21T19:26:41;14.00;99.90
5154;DHT22;2595;53.584;10.084;2022-09-21T19:29:31;14.00;99.90
5154;DHT22;2595;53.584;10.084;2022-09-21T19:31:59;14.00;99.90
5154;DHT22;2595;53.584;10.084;2022-09-21T19:34:25;13.90;99.90
5154;DHT22;2595;53.584;10.084;2022-09-21T19:36:52;13.90;99.90
5154;DHT22;2595;53.584;10.084;2022-09-21T19:39:21;13.80;99.90
5154;DHT22;2595;53.584;10.084;2022-09-21T19:42:07;13.80;99.90
5154;DHT22;2595;53.584;10.084;2022-09-21T19:47:33;13.70;99.90
5154;DHT22;2595;53.584;10.084;2022-09-21T19:50:23;13.80;99.90
5154;DHT22;2595;53.584;10.084;2022-09-21T19:52:51;13.70;99.90
5154;DHT22;2595;53.584;10.084;2022-09-21T19:55:19;13.60;99.90